Terminal Aerodrome Forecast
Issued by NWS Grand Forks, ND

Home | Current Version | Previous Version | Graphics & Text | Print | Product List | Glossary On
Versions: 1 2 3 4 5 6 7 8 9 10 11 12 13 14 15 16 17 18 19 20 21
711
FTUS43 KFGF 140535
TAFGFK
TAF
KGFK 140535Z 1406/1506 17018G25KT 3SM -SN BKN025
     FM140800 15020G28KT 5SM -SN OVC025
     FM141500 15018KT 2SM -SN OVC015
     FM142200 19008KT P6SM OVC015=

USA.gov is the U.S. government's official web portal to all federal, state and local government web resources and services.